createdAt,value
2022-09-03T03:33:32.835Z,97.04
2022-09-03T03:38:35.223Z,97.04
2022-09-03T03:43:36.881Z,99.38
2022-09-03T03:48:38.706Z,99.38
2022-09-03T03:53:40.713Z,100
2022-09-03T03:58:42.732Z,100
2022-09-03T04:03:44.658Z,99.72
2022-09-03T04:08:49.868Z,99.72
2022-09-03T04:13:52.089Z,100
2022-09-03T04:18:54.367Z,100
2022-09-03T04:23:56.805Z,100
2022-09-03T04:28:58.816Z,100
2022-09-03T04:34:00.686Z,100
2022-09-03T04:39:02.395Z,100
2022-09-03T04:44:03.997Z,100
2022-09-03T04:49:05.791Z,100
2022-09-03T04:54:07.479Z,100
2022-09-03T04:59:09.334Z,100
2022-09-03T05:04:11.051Z,100
2022-09-03T05:09:12.892Z,100
2022-09-03T05:14:14.621Z,100
2022-09-03T05:19:16.393Z,100
2022-09-03T05:24:18.073Z,100
2022-09-03T05:29:19.817Z,97.26
2022-09-03T05:34:21.531Z,93.14
2022-09-03T05:39:23.313Z,93.14
2022-09-03T05:44:25.170Z,85.28
2022-09-03T05:49:26.853Z,85.28
2022-09-03T05:54:28.515Z,84.06
2022-09-03T05:59:30.113Z,84.06
2022-09-03T06:04:33.667Z,86.33
2022-09-03T06:09:35.766Z,86.33
2022-09-03T06:14:37.565Z,85.17
2022-09-03T06:19:39.239Z,85.17
2022-09-03T06:24:40.866Z,83.08
2022-09-03T06:29:42.526Z,83.08
2022-09-03T06:34:44.300Z,83.84
2022-09-03T06:39:46.133Z,83.84
2022-09-03T06:44:48.041Z,83.45
2022-09-03T06:49:49.703Z,87.13
2022-09-03T06:54:51.494Z,87.13
2022-09-03T06:59:53.125Z,81.79
2022-09-03T07:04:55.582Z,81.79
2022-09-03T07:09:57.254Z,80.48
2022-09-03T07:14:58.874Z,80.48
2022-09-03T07:20:02.331Z,80.91
2022-09-03T07:25:04.556Z,80.91
2022-09-03T07:30:06.853Z,77.41
2022-09-03T07:35:09.146Z,77.41
2022-09-03T07:40:11.364Z,74.35
2022-09-03T07:45:13.382Z,74.35
2022-09-03T07:50:15.168Z,73.55
2022-09-03T07:55:16.850Z,73.55
2022-09-03T08:00:18.448Z,68.48
2022-09-03T08:05:20.097Z,68.48
2022-09-03T08:10:21.981Z,64.6
2022-09-03T08:15:23.957Z,64.47
2022-09-03T08:20:25.682Z,64.47
2022-09-03T08:25:27.634Z,61.93
2022-09-03T08:30:29.355Z,61.93
2022-09-03T08:35:31.045Z,68.36
2022-09-03T08:40:36.177Z,68.36
2022-09-03T08:45:37.868Z,60.65
2022-09-03T08:50:41.339Z,60.65
2022-09-03T08:55:47.106Z,57.09
2022-09-03T09:00:55.344Z,57.09
2022-09-03T09:06:02.916Z,59.92
2022-09-03T09:11:08.022Z,59.92
2022-09-03T09:16:14.077Z,49.2
2022-09-03T09:21:25.189Z,49.2
2022-09-03T09:26:29.456Z,43.84
2022-09-03T09:31:32.805Z,48.38
2022-09-03T09:36:37.196Z,48.38
2022-09-03T09:41:38.796Z,46.72
2022-09-03T09:46:40.673Z,46.72
2022-09-03T09:51:42.821Z,46.77
2022-09-03T09:56:44.872Z,46.77
2022-09-03T10:01:46.651Z,53.84
2022-09-03T10:06:53.494Z,53.84
2022-09-03T10:17:04.863Z,56.07
2022-09-03T10:22:09.667Z,57.54
2022-09-03T10:27:13.797Z,57.54
2022-09-03T10:32:21.606Z,52.66
2022-09-03T10:37:28.593Z,53.08
2022-09-03T10:42:36.727Z,53.08
2022-09-03T10:58:00.968Z,59.5
2022-09-03T11:08:21.165Z,53.65
2022-09-03T11:13:27.040Z,53.65
2022-09-03T11:18:31.024Z,52.4
2022-09-03T11:23:37.421Z,52.4
2022-09-03T11:28:42.065Z,48.96
2022-09-03T11:33:47.249Z,48.96
2022-09-03T11:38:51.092Z,50.3
2022-09-03T11:43:52.961Z,47.8
2022-09-03T11:48:55.537Z,47.8
2022-09-03T11:53:58.783Z,48.82
2022-09-03T11:59:05.771Z,48.82
2022-09-03T12:04:07.884Z,45.76
2022-09-03T12:09:16.730Z,45.76
2022-09-03T12:14:21.747Z,48.08
2022-09-03T12:19:30.270Z,48.08
2022-09-03T12:24:37.664Z,48.26
2022-09-03T12:34:46.314Z,43.83
2022-09-03T12:50:05.736Z,43.25
2022-09-03T13:00:14.527Z,46.94
2022-09-03T13:05:18.082Z,46.94
2022-09-03T13:10:24.970Z,36.19
2022-09-03T13:15:27.180Z,36.19
2022-09-03T13:20:32.759Z,35.89
2022-09-03T13:25:38.417Z,35.89
2022-09-03T13:35:49.016Z,48.06
2022-09-03T13:40:53.910Z,36.29
2022-09-03T13:45:57.728Z,36.29
2022-09-03T14:01:17.696Z,40.31
2022-09-03T14:06:25.271Z,40.59
2022-09-03T14:11:30.825Z,40.59
2022-09-03T14:16:37.560Z,34.88
2022-09-03T14:21:42.262Z,34.88
2022-09-03T14:26:50.056Z,36.14
2022-09-03T14:32:02.367Z,36.14
2022-09-03T14:37:08.914Z,36.1
2022-09-03T14:42:16.276Z,36.1
2022-09-03T14:57:45.455Z,43.66
2022-09-03T15:08:00.709Z,44.98
2022-09-03T15:13:09.902Z,43.74
2022-09-03T15:18:18.551Z,43.74
2022-09-03T15:38:48.414Z,31.61
2022-09-03T15:48:58.850Z,40.77
2022-09-03T15:59:11.564Z,45.19
2022-09-03T16:14:37.627Z,47.06
2022-09-03T16:19:43.372Z,51.07
2022-09-03T16:24:48.296Z,51.07
2022-09-03T16:35:02.634Z,49.24
2022-09-03T16:40:12.246Z,50.2
2022-09-03T16:45:18.724Z,51.54
2022-09-03T16:50:26.255Z,51.54
2022-09-03T17:16:01.857Z,62.87
2022-09-03T17:21:09.867Z,62.87
2022-09-03T17:31:20.130Z,67.42
2022-09-03T17:36:26.276Z,67.21
2022-09-03T17:46:40.793Z,70.3
2022-09-03T17:51:43.549Z,70.07
2022-09-03T17:56:49.226Z,70.07
2022-09-03T18:01:54.268Z,69.19
2022-09-03T18:07:00.320Z,69.19
2022-09-03T18:12:05.628Z,69.49
2022-09-03T18:17:10.330Z,69.49
2022-09-03T18:22:12.141Z,69.47
2022-09-03T18:27:17.598Z,69.47
2022-09-03T18:32:19.571Z,71
2022-09-03T18:37:22.863Z,71
2022-09-03T18:42:29.443Z,74.21
2022-09-03T18:52:43.297Z,73.85
2022-09-03T19:08:06.164Z,74.8
2022-09-03T19:23:26.291Z,75.98
2022-09-03T19:28:29.861Z,75.8
2022-09-03T19:33:36.407Z,75.8
2022-09-03T19:38:44.268Z,79.99
2022-09-03T19:43:51.092Z,79.99
2022-09-03T19:48:59.212Z,80.97
2022-09-03T19:54:03.832Z,80.83
2022-09-03T20:04:12.878Z,82.45
2022-09-03T20:09:18.462Z,82.45
2022-09-03T20:14:20.619Z,80.77
2022-09-03T20:29:43.492Z,83.65
2022-09-03T20:34:48.780Z,83.49
2022-09-03T20:45:03.920Z,83.54
2022-09-03T20:50:12.318Z,83.54
2022-09-03T20:55:16.838Z,83.54
2022-09-03T21:00:19.048Z,83.54
2022-09-03T21:05:24.816Z,83.54
2022-09-03T21:10:31.795Z,83.54
2022-09-03T21:15:38.802Z,83.54
2022-09-03T21:20:45.157Z,83.54
2022-09-03T21:25:50.609Z,83.54
2022-09-03T21:30:54.121Z,83.54
2022-09-03T21:36:02.120Z,83.54
